sensor_id;sensor_type;location;lat;lon;timestamp;P1;durP1;ratioP1;P2;durP2;ratioP2
22871;SDS011;11603;44.910;8.630;2022-07-29T00:02:21;5.50;;;4.55;;
22871;SDS011;11603;44.910;8.630;2022-07-29T00:04:46;5.38;;;4.88;;
22871;SDS011;11603;44.910;8.630;2022-07-29T00:07:12;5.15;;;4.65;;
22871;SDS011;11603;44.910;8.630;2022-07-29T00:09:37;7.60;;;5.28;;
22871;SDS011;11603;44.910;8.630;2022-07-29T00:12:03;4.93;;;4.40;;
22871;SDS011;11603;44.910;8.630;2022-07-29T00:14:28;5.20;;;4.40;;
22871;SDS011;11603;44.910;8.630;2022-07-29T00:16:54;4.68;;;4.15;;
22871;SDS011;11603;44.910;8.630;2022-07-29T00:19:19;6.63;;;4.25;;
22871;SDS011;11603;44.910;8.630;2022-07-29T00:21:45;6.43;;;4.90;;
22871;SDS011;11603;44.910;8.630;2022-07-29T00:24:10;5.45;;;4.72;;
22871;SDS011;11603;44.910;8.630;2022-07-29T00:26:36;7.57;;;4.68;;
22871;SDS011;11603;44.910;8.630;2022-07-29T00:29:02;4.68;;;4.15;;
22871;SDS011;11603;44.910;8.630;2022-07-29T00:31:29;7.65;;;4.10;;
22871;SDS011;11603;44.910;8.630;2022-07-29T00:33:54;4.10;;;3.70;;
22871;SDS011;11603;44.910;8.630;2022-07-29T00:36:21;4.40;;;3.67;;
22871;SDS011;11603;44.910;8.630;2022-07-29T00:38:47;4.10;;;3.28;;
22871;SDS011;11603;44.910;8.630;2022-07-29T00:41:13;3.35;;;3.05;;
22871;SDS011;11603;44.910;8.630;2022-07-29T00:43:39;5.13;;;3.30;;
22871;SDS011;11603;44.910;8.630;2022-07-29T00:46:06;3.03;;;2.70;;
22871;SDS011;11603;44.910;8.630;2022-07-29T00:48:31;5.03;;;2.67;;
22871;SDS011;11603;44.910;8.630;2022-07-29T00:50:57;4.05;;;2.60;;
22871;SDS011;11603;44.910;8.630;2022-07-29T00:53:24;3.47;;;2.90;;
22871;SDS011;11603;44.910;8.630;2022-07-29T00:55:50;4.75;;;3.00;;
22871;SDS011;11603;44.910;8.630;2022-07-29T00:58:16;4.32;;;2.83;;
22871;SDS011;11603;44.910;8.630;2022-07-29T01:00:42;3.00;;;2.47;;
22871;SDS011;11603;44.910;8.630;2022-07-29T01:03:08;5.40;;;2.53;;
22871;SDS011;11603;44.910;8.630;2022-07-29T01:05:34;3.58;;;2.42;;
22871;SDS011;11603;44.910;8.630;2022-07-29T01:08:00;3.88;;;1.98;;
22871;SDS011;11603;44.910;8.630;2022-07-29T01:10:27;3.00;;;2.38;;
22871;SDS011;11603;44.910;8.630;2022-07-29T01:12:53;2.45;;;2.10;;
22871;SDS011;11603;44.910;8.630;2022-07-29T01:15:21;3.22;;;2.55;;
22871;SDS011;11603;44.910;8.630;2022-07-29T01:32:01;3.75;;;2.15;;
22871;SDS011;11603;44.910;8.630;2022-07-29T01:34:34;3.13;;;2.10;;
22871;SDS011;11603;44.910;8.630;2022-07-29T01:37:15;4.45;;;2.10;;
22871;SDS011;11603;44.910;8.630;2022-07-29T01:39:47;2.28;;;1.92;;
22871;SDS011;11603;44.910;8.630;2022-07-29T01:42:21;5.00;;;2.22;;
22871;SDS011;11603;44.910;8.630;2022-07-29T01:47:26;3.92;;;2.13;;
22871;SDS011;11603;44.910;8.630;2022-07-29T01:49:58;2.70;;;1.90;;
22871;SDS011;11603;44.910;8.630;2022-07-29T01:52:38;2.65;;;2.00;;
22871;SDS011;11603;44.910;8.630;2022-07-29T01:55:12;3.83;;;2.03;;
22871;SDS011;11603;44.910;8.630;2022-07-29T01:57:40;4.15;;;1.85;;
22871;SDS011;11603;44.910;8.630;2022-07-29T02:00:08;3.17;;;1.83;;
22871;SDS011;11603;44.910;8.630;2022-07-29T02:02:39;3.35;;;2.17;;
22871;SDS011;11603;44.910;8.630;2022-07-29T02:05:07;5.15;;;2.25;;
22871;SDS011;11603;44.910;8.630;2022-07-29T02:07:37;3.20;;;1.90;;
22871;SDS011;11603;44.910;8.630;2022-07-29T02:10:05;4.00;;;1.77;;
22871;SDS011;11603;44.910;8.630;2022-07-29T02:12:33;5.93;;;2.13;;
22871;SDS011;11603;44.910;8.630;2022-07-29T02:15:02;2.20;;;1.90;;
22871;SDS011;11603;44.910;8.630;2022-07-29T02:17:33;2.67;;;2.13;;
22871;SDS011;11603;44.910;8.630;2022-07-29T02:20:04;2.47;;;2.03;;
22871;SDS011;11603;44.910;8.630;2022-07-29T02:22:31;4.88;;;2.20;;
22871;SDS011;11603;44.910;8.630;2022-07-29T02:25:00;2.67;;;2.00;;
22871;SDS011;11603;44.910;8.630;2022-07-29T02:27:26;2.20;;;2.00;;
22871;SDS011;11603;44.910;8.630;2022-07-29T02:29:54;2.90;;;2.10;;
22871;SDS011;11603;44.910;8.630;2022-07-29T02:32:23;3.72;;;2.30;;
22871;SDS011;11603;44.910;8.630;2022-07-29T02:34:51;3.38;;;2.42;;
22871;SDS011;11603;44.910;8.630;2022-07-29T02:37:17;2.20;;;2.00;;
22871;SDS011;11603;44.910;8.630;2022-07-29T02:39:43;2.13;;;1.70;;
22871;SDS011;11603;44.910;8.630;2022-07-29T02:42:12;3.60;;;2.17;;
22871;SDS011;11603;44.910;8.630;2022-07-29T02:44:40;2.70;;;2.17;;
22871;SDS011;11603;44.910;8.630;2022-07-29T02:47:51;2.88;;;2.20;;
22871;SDS011;11603;44.910;8.630;2022-07-29T02:50:15;6.18;;;2.00;;
22871;SDS011;11603;44.910;8.630;2022-07-29T02:52:44;5.93;;;2.60;;
22871;SDS011;11603;44.910;8.630;2022-07-29T02:55:17;4.97;;;2.30;;
22871;SDS011;11603;44.910;8.630;2022-07-29T02:57:59;5.88;;;2.13;;
22871;SDS011;11603;44.910;8.630;2022-07-29T03:00:28;2.33;;;2.10;;
22871;SDS011;11603;44.910;8.630;2022-07-29T03:02:56;5.28;;;2.75;;
22871;SDS011;11603;44.910;8.630;2022-07-29T03:05:23;3.78;;;2.42;;
22871;SDS011;11603;44.910;8.630;2022-07-29T03:07:51;3.38;;;2.50;;
22871;SDS011;11603;44.910;8.630;2022-07-29T03:10:20;5.43;;;2.50;;
22871;SDS011;11603;44.910;8.630;2022-07-29T03:12:47;3.35;;;2.28;;
22871;SDS011;11603;44.910;8.630;2022-07-29T03:15:13;2.33;;;2.13;;
22871;SDS011;11603;44.910;8.630;2022-07-29T03:17:39;2.70;;;2.50;;
22871;SDS011;11603;44.910;8.630;2022-07-29T03:20:06;3.58;;;2.25;;
22871;SDS011;11603;44.910;8.630;2022-07-29T03:22:37;3.80;;;2.30;;
22871;SDS011;11603;44.910;8.630;2022-07-29T03:25:08;2.50;;;2.30;;
22871;SDS011;11603;44.910;8.630;2022-07-29T03:27:34;2.70;;;2.35;;
22871;SDS011;11603;44.910;8.630;2022-07-29T03:30:00;2.88;;;2.42;;
22871;SDS011;11603;44.910;8.630;2022-07-29T03:32:25;4.70;;;2.08;;
22871;SDS011;11603;44.910;8.630;2022-07-29T03:34:51;3.10;;;2.40;;
22871;SDS011;11603;44.910;8.630;2022-07-29T03:37:16;4.50;;;2.35;;
22871;SDS011;11603;44.910;8.630;2022-07-29T03:39:42;2.85;;;2.45;;
22871;SDS011;11603;44.910;8.630;2022-07-29T03:42:10;4.15;;;2.40;;
22871;SDS011;11603;44.910;8.630;2022-07-29T03:44:39;4.32;;;2.20;;
22871;SDS011;11603;44.910;8.630;2022-07-29T03:47:09;3.25;;;2.33;;
22871;SDS011;11603;44.910;8.630;2022-07-29T03:49:36;5.03;;;2.30;;
22871;SDS011;11603;44.910;8.630;2022-07-29T03:52:05;3.67;;;2.50;;
22871;SDS011;11603;44.910;8.630;2022-07-29T03:54:31;4.70;;;1.70;;
22871;SDS011;11603;44.910;8.630;2022-07-29T03:56:58;4.88;;;2.45;;
22871;SDS011;11603;44.910;8.630;2022-07-29T03:59:26;5.15;;;2.25;;
22871;SDS011;11603;44.910;8.630;2022-07-29T04:01:52;4.07;;;2.25;;
22871;SDS011;11603;44.910;8.630;2022-07-29T04:04:19;2.72;;;2.10;;
22871;SDS011;11603;44.910;8.630;2022-07-29T04:06:45;4.85;;;2.10;;
22871;SDS011;11603;44.910;8.630;2022-07-29T04:09:11;3.55;;;2.00;;
22871;SDS011;11603;44.910;8.630;2022-07-29T04:11:40;3.30;;;2.30;;
22871;SDS011;11603;44.910;8.630;2022-07-29T04:14:07;5.03;;;2.47;;
22871;SDS011;11603;44.910;8.630;2022-07-29T04:16:32;4.30;;;2.60;;
22871;SDS011;11603;44.910;8.630;2022-07-29T04:18:58;4.90;;;2.58;;
22871;SDS011;11603;44.910;8.630;2022-07-29T04:21:24;4.35;;;2.35;;
22871;SDS011;11603;44.910;8.630;2022-07-29T04:23:49;2.33;;;2.10;;
22871;SDS011;11603;44.910;8.630;2022-07-29T04:26:18;6.18;;;2.70;;
22871;SDS011;11603;44.910;8.630;2022-07-29T04:28:46;3.35;;;2.20;;
22871;SDS011;11603;44.910;8.630;2022-07-29T04:31:12;5.75;;;2.78;;
22871;SDS011;11603;44.910;8.630;2022-07-29T04:33:38;3.75;;;3.25;;
22871;SDS011;11603;44.910;8.630;2022-07-29T04:36:04;7.70;;;2.65;;
22871;SDS011;11603;44.910;8.630;2022-07-29T04:38:30;6.07;;;3.15;;
22871;SDS011;11603;44.910;8.630;2022-07-29T04:40:55;7.03;;;3.45;;
22871;SDS011;11603;44.910;8.630;2022-07-29T04:43:21;6.10;;;3.10;;
22871;SDS011;11603;44.910;8.630;2022-07-29T04:45:46;5.72;;;3.20;;
22871;SDS011;11603;44.910;8.630;2022-07-29T04:48:12;7.68;;;3.53;;
22871;SDS011;11603;44.910;8.630;2022-07-29T04:50:38;7.00;;;3.85;;
22871;SDS011;11603;44.910;8.630;2022-07-29T04:53:03;5.43;;;3.58;;
22871;SDS011;11603;44.910;8.630;2022-07-29T04:55:29;8.25;;;3.80;;
22871;SDS011;11603;44.910;8.630;2022-07-29T04:57:54;9.27;;;4.03;;
22871;SDS011;11603;44.910;8.630;2022-07-29T05:00:20;6.70;;;4.63;;
22871;SDS011;11603;44.910;8.630;2022-07-29T05:02:45;5.43;;;3.88;;
22871;SDS011;11603;44.910;8.630;2022-07-29T05:05:11;6.68;;;3.97;;
22871;SDS011;11603;44.910;8.630;2022-07-29T05:07:36;9.57;;;4.40;;
22871;SDS011;11603;44.910;8.630;2022-07-29T05:10:02;6.25;;;4.40;;
22871;SDS011;11603;44.910;8.630;2022-07-29T05:12:28;8.23;;;4.20;;
22871;SDS011;11603;44.910;8.630;2022-07-29T05:14:53;7.90;;;3.90;;
22871;SDS011;11603;44.910;8.630;2022-07-29T05:17:19;4.70;;;3.85;;
22871;SDS011;11603;44.910;8.630;2022-07-29T05:19:45;12.00;;;4.25;;
22871;SDS011;11603;44.910;8.630;2022-07-29T05:22:10;7.72;;;4.43;;
22871;SDS011;11603;44.910;8.630;2022-07-29T05:24:36;8.48;;;4.32;;
22871;SDS011;11603;44.910;8.630;2022-07-29T05:27:01;10.18;;;4.53;;
22871;SDS011;11603;44.910;8.630;2022-07-29T05:29:27;6.30;;;4.60;;
22871;SDS011;11603;44.910;8.630;2022-07-29T05:31:52;9.18;;;4.55;;
22871;SDS011;11603;44.910;8.630;2022-07-29T05:34:18;6.47;;;3.97;;
22871;SDS011;11603;44.910;8.630;2022-07-29T05:36:44;6.35;;;3.75;;
22871;SDS011;11603;44.910;8.630;2022-07-29T05:39:10;6.55;;;4.32;;
22871;SDS011;11603;44.910;8.630;2022-07-29T05:41:36;9.30;;;4.30;;
22871;SDS011;11603;44.910;8.630;2022-07-29T05:44:01;8.55;;;4.60;;
22871;SDS011;11603;44.910;8.630;2022-07-29T05:46:27;8.90;;;4.25;;
22871;SDS011;11603;44.910;8.630;2022-07-29T05:48:53;10.30;;;4.47;;
22871;SDS011;11603;44.910;8.630;2022-07-29T05:51:19;5.80;;;4.63;;
22871;SDS011;11603;44.910;8.630;2022-07-29T05:53:44;6.53;;;4.55;;
22871;SDS011;11603;44.910;8.630;2022-07-29T05:56:10;8.43;;;5.03;;
22871;SDS011;11603;44.910;8.630;2022-07-29T05:58:35;5.68;;;4.40;;
22871;SDS011;11603;44.910;8.630;2022-07-29T06:01:01;5.88;;;4.60;;
22871;SDS011;11603;44.910;8.630;2022-07-29T06:03:28;6.68;;;3.85;;
22871;SDS011;11603;44.910;8.630;2022-07-29T06:05:53;5.55;;;3.60;;
22871;SDS011;11603;44.910;8.630;2022-07-29T06:08:19;6.40;;;3.63;;
22871;SDS011;11603;44.910;8.630;2022-07-29T06:10:44;5.25;;;4.30;;
22871;SDS011;11603;44.910;8.630;2022-07-29T06:13:10;6.63;;;4.03;;
22871;SDS011;11603;44.910;8.630;2022-07-29T06:15:37;3.35;;;3.05;;
22871;SDS011;11603;44.910;8.630;2022-07-29T06:18:02;4.47;;;3.58;;
22871;SDS011;11603;44.910;8.630;2022-07-29T06:20:28;3.60;;;2.50;;
22871;SDS011;11603;44.910;8.630;2022-07-29T06:22:55;4.35;;;3.00;;
22871;SDS011;11603;44.910;8.630;2022-07-29T06:25:21;9.82;;;3.47;;
22871;SDS011;11603;44.910;8.630;2022-07-29T06:27:46;3.38;;;2.60;;
22871;SDS011;11603;44.910;8.630;2022-07-29T06:30:12;4.07;;;2.72;;
22871;SDS011;11603;44.910;8.630;2022-07-29T06:32:38;5.13;;;2.88;;
22871;SDS011;11603;44.910;8.630;2022-07-29T06:35:03;3.92;;;3.05;;
22871;SDS011;11603;44.910;8.630;2022-07-29T06:37:29;3.10;;;2.80;;
22871;SDS011;11603;44.910;8.630;2022-07-29T06:39:55;6.10;;;3.03;;
22871;SDS011;11603;44.910;8.630;2022-07-29T06:42:42;5.50;;;2.90;;
22871;SDS011;11603;44.910;8.630;2022-07-29T06:45:08;5.18;;;3.20;;
22871;SDS011;11603;44.910;8.630;2022-07-29T06:47:35;4.18;;;2.97;;
22871;SDS011;11603;44.910;8.630;2022-07-29T06:50:00;3.83;;;3.45;;
22871;SDS011;11603;44.910;8.630;2022-07-29T06:52:26;3.80;;;3.05;;
22871;SDS011;11603;44.910;8.630;2022-07-29T06:54:51;6.70;;;3.10;;
22871;SDS011;11603;44.910;8.630;2022-07-29T06:57:17;6.47;;;3.00;;
22871;SDS011;11603;44.910;8.630;2022-07-29T06:59:42;4.70;;;3.13;;
22871;SDS011;11603;44.910;8.630;2022-07-29T07:02:07;8.63;;;3.35;;
22871;SDS011;11603;44.910;8.630;2022-07-29T07:04:33;4.20;;;3.10;;
22871;SDS011;11603;44.910;8.630;2022-07-29T07:06:58;3.67;;;3.20;;
22871;SDS011;11603;44.910;8.630;2022-07-29T07:09:24;4.50;;;3.25;;
22871;SDS011;11603;44.910;8.630;2022-07-29T07:11:50;4.25;;;2.90;;
22871;SDS011;11603;44.910;8.630;2022-07-29T07:14:15;3.17;;;2.83;;
22871;SDS011;11603;44.910;8.630;2022-07-29T07:16:41;3.80;;;3.20;;
22871;SDS011;11603;44.910;8.630;2022-07-29T07:19:06;4.32;;;3.00;;
22871;SDS011;11603;44.910;8.630;2022-07-29T07:21:32;9.70;;;3.13;;
22871;SDS011;11603;44.910;8.630;2022-07-29T07:23:58;5.38;;;3.10;;
22871;SDS011;11603;44.910;8.630;2022-07-29T07:26:24;4.28;;;2.80;;
22871;SDS011;11603;44.910;8.630;2022-07-29T07:28:50;4.80;;;2.80;;
22871;SDS011;11603;44.910;8.630;2022-07-29T07:31:16;4.22;;;2.95;;
22871;SDS011;11603;44.910;8.630;2022-07-29T07:33:41;4.45;;;2.75;;
22871;SDS011;11603;44.910;8.630;2022-07-29T07:36:07;5.20;;;3.10;;
22871;SDS011;11603;44.910;8.630;2022-07-29T07:38:32;4.82;;;3.17;;
22871;SDS011;11603;44.910;8.630;2022-07-29T07:40:58;4.25;;;3.15;;
22871;SDS011;11603;44.910;8.630;2022-07-29T07:43:24;3.72;;;3.20;;
22871;SDS011;11603;44.910;8.630;2022-07-29T07:45:49;4.60;;;3.13;;
22871;SDS011;11603;44.910;8.630;2022-07-29T07:48:15;3.45;;;3.10;;
22871;SDS011;11603;44.910;8.630;2022-07-29T07:50:40;3.55;;;2.40;;
22871;SDS011;11603;44.910;8.630;2022-07-29T07:53:06;4.68;;;3.28;;
22871;SDS011;11603;44.910;8.630;2022-07-29T07:55:31;4.75;;;2.95;;
22871;SDS011;11603;44.910;8.630;2022-07-29T07:57:57;5.80;;;2.80;;
22871;SDS011;11603;44.910;8.630;2022-07-29T08:00:22;5.97;;;2.22;;
22871;SDS011;11603;44.910;8.630;2022-07-29T08:02:48;2.95;;;2.50;;
22871;SDS011;11603;44.910;8.630;2022-07-29T08:05:13;3.72;;;2.67;;
22871;SDS011;11603;44.910;8.630;2022-07-29T08:07:45;5.97;;;2.50;;
22871;SDS011;11603;44.910;8.630;2022-07-29T08:10:12;3.38;;;2.60;;
22871;SDS011;11603;44.910;8.630;2022-07-29T08:13:05;3.47;;;2.58;;
22871;SDS011;11603;44.910;8.630;2022-07-29T08:15:32;4.68;;;2.60;;
22871;SDS011;11603;44.910;8.630;2022-07-29T08:17:58;2.90;;;2.40;;
22871;SDS011;11603;44.910;8.630;2022-07-29T08:20:25;5.15;;;3.47;;
22871;SDS011;11603;44.910;8.630;2022-07-29T08:22:51;3.50;;;2.95;;
22871;SDS011;11603;44.910;8.630;2022-07-29T08:25:17;6.10;;;2.80;;
22871;SDS011;11603;44.910;8.630;2022-07-29T08:27:45;4.10;;;2.95;;
22871;SDS011;11603;44.910;8.630;2022-07-29T08:30:11;3.10;;;2.80;;
22871;SDS011;11603;44.910;8.630;2022-07-29T08:32:37;4.00;;;3.13;;
22871;SDS011;11603;44.910;8.630;2022-07-29T08:35:02;4.55;;;2.50;;
22871;SDS011;11603;44.910;8.630;2022-07-29T08:37:28;3.88;;;2.95;;
22871;SDS011;11603;44.910;8.630;2022-07-29T08:39:53;3.15;;;2.85;;
22871;SDS011;11603;44.910;8.630;2022-07-29T08:42:19;5.97;;;3.10;;
22871;SDS011;11603;44.910;8.630;2022-07-29T08:44:44;6.18;;;3.20;;
22871;SDS011;11603;44.910;8.630;2022-07-29T08:47:10;7.22;;;3.80;;
22871;SDS011;11603;44.910;8.630;2022-07-29T08:49:39;5.82;;;3.83;;
22871;SDS011;11603;44.910;8.630;2022-07-29T08:52:05;5.63;;;3.13;;
22871;SDS011;11603;44.910;8.630;2022-07-29T08:54:31;4.60;;;3.45;;
22871;SDS011;11603;44.910;8.630;2022-07-29T08:56:57;3.40;;;3.00;;
22871;SDS011;11603;44.910;8.630;2022-07-29T08:59:24;4.70;;;3.22;;
22871;SDS011;11603;44.910;8.630;2022-07-29T09:01:52;5.00;;;3.70;;
22871;SDS011;11603;44.910;8.630;2022-07-29T09:04:19;3.78;;;2.90;;
22871;SDS011;11603;44.910;8.630;2022-07-29T09:06:49;3.85;;;2.95;;
22871;SDS011;11603;44.910;8.630;2022-07-29T09:09:17;4.63;;;2.90;;
22871;SDS011;11603;44.910;8.630;2022-07-29T09:11:42;3.97;;;2.97;;
22871;SDS011;11603;44.910;8.630;2022-07-29T09:14:09;2.45;;;2.25;;
22871;SDS011;11603;44.910;8.630;2022-07-29T09:19:30;4.32;;;2.90;;
22871;SDS011;11603;44.910;8.630;2022-07-29T09:21:59;8.43;;;2.80;;
22871;SDS011;11603;44.910;8.630;2022-07-29T09:24:28;4.53;;;2.50;;
22871;SDS011;11603;44.910;8.630;2022-07-29T09:27:22;2.92;;;2.63;;
22871;SDS011;11603;44.910;8.630;2022-07-29T09:30:04;5.25;;;2.42;;
22871;SDS011;11603;44.910;8.630;2022-07-29T09:32:32;4.53;;;2.70;;
22871;SDS011;11603;44.910;8.630;2022-07-29T09:35:14;5.10;;;2.70;;
22871;SDS011;11603;44.910;8.630;2022-07-29T09:37:41;3.28;;;2.70;;
22871;SDS011;11603;44.910;8.630;2022-07-29T09:40:11;3.08;;;2.78;;
22871;SDS011;11603;44.910;8.630;2022-07-29T09:42:45;3.78;;;2.55;;
22871;SDS011;11603;44.910;8.630;2022-07-29T09:45:11;4.78;;;2.80;;
22871;SDS011;11603;44.910;8.630;2022-07-29T09:47:41;3.83;;;2.60;;
22871;SDS011;11603;44.910;8.630;2022-07-29T09:50:13;4.72;;;2.92;;
22871;SDS011;11603;44.910;8.630;2022-07-29T09:52:47;4.55;;;2.40;;
22871;SDS011;11603;44.910;8.630;2022-07-29T09:55:14;3.85;;;3.13;;
22871;SDS011;11603;44.910;8.630;2022-07-29T09:57:40;3.53;;;2.70;;
22871;SDS011;11603;44.910;8.630;2022-07-29T10:02:40;5.03;;;4.35;;
22871;SDS011;11603;44.910;8.630;2022-07-29T10:05:29;4.30;;;3.90;;
22871;SDS011;11603;44.910;8.630;2022-07-29T10:07:55;4.85;;;3.10;;
22871;SDS011;11603;44.910;8.630;2022-07-29T10:10:26;5.70;;;3.75;;
22871;SDS011;11603;44.910;8.630;2022-07-29T10:12:54;7.90;;;3.30;;
22871;SDS011;11603;44.910;8.630;2022-07-29T10:15:25;4.60;;;3.63;;
22871;SDS011;11603;44.910;8.630;2022-07-29T10:17:54;5.00;;;3.20;;
22871;SDS011;11603;44.910;8.630;2022-07-29T10:20:21;3.50;;;3.20;;
22871;SDS011;11603;44.910;8.630;2022-07-29T10:22:48;4.63;;;3.03;;
22871;SDS011;11603;44.910;8.630;2022-07-29T10:25:15;5.95;;;3.35;;
22871;SDS011;11603;44.910;8.630;2022-07-29T10:27:42;4.93;;;3.10;;
22871;SDS011;11603;44.910;8.630;2022-07-29T10:30:09;5.45;;;3.53;;
22871;SDS011;11603;44.910;8.630;2022-07-29T10:40:54;5.32;;;3.25;;
22871;SDS011;11603;44.910;8.630;2022-07-29T10:43:49;4.63;;;3.47;;
22871;SDS011;11603;44.910;8.630;2022-07-29T10:46:16;4.25;;;3.80;;
22871;SDS011;11603;44.910;8.630;2022-07-29T10:54:46;6.32;;;3.63;;
22871;SDS011;11603;44.910;8.630;2022-07-29T10:57:16;4.28;;;3.35;;
22871;SDS011;11603;44.910;8.630;2022-07-29T11:05:18;4.50;;;4.10;;
22871;SDS011;11603;44.910;8.630;2022-07-29T11:10:37;6.30;;;4.20;;
22871;SDS011;11603;44.910;8.630;2022-07-29T11:13:03;9.57;;;5.43;;
22871;SDS011;11603;44.910;8.630;2022-07-29T11:15:28;5.90;;;4.18;;
22871;SDS011;11603;44.910;8.630;2022-07-29T11:31:48;6.35;;;4.00;;
22871;SDS011;11603;44.910;8.630;2022-07-29T11:34:20;4.15;;;3.75;;
22871;SDS011;11603;44.910;8.630;2022-07-29T11:39:46;4.80;;;3.42;;
22871;SDS011;11603;44.910;8.630;2022-07-29T11:44:55;6.45;;;4.50;;
22871;SDS011;11603;44.910;8.630;2022-07-29T11:47:21;9.00;;;4.47;;
22871;SDS011;11603;44.910;8.630;2022-07-29T11:49:47;7.63;;;3.92;;
22871;SDS011;11603;44.910;8.630;2022-07-29T11:52:13;5.22;;;3.35;;
22871;SDS011;11603;44.910;8.630;2022-07-29T11:54:39;6.90;;;3.83;;
22871;SDS011;11603;44.910;8.630;2022-07-29T11:57:09;5.88;;;3.80;;
22871;SDS011;11603;44.910;8.630;2022-07-29T11:59:41;7.53;;;4.00;;
22871;SDS011;11603;44.910;8.630;2022-07-29T12:02:11;5.05;;;3.60;;
22871;SDS011;11603;44.910;8.630;2022-07-29T12:04:51;7.25;;;3.28;;
22871;SDS011;11603;44.910;8.630;2022-07-29T12:07:30;6.03;;;4.53;;
22871;SDS011;11603;44.910;8.630;2022-07-29T12:09:56;4.68;;;4.15;;
22871;SDS011;11603;44.910;8.630;2022-07-29T12:12:22;6.57;;;3.83;;
22871;SDS011;11603;44.910;8.630;2022-07-29T12:14:48;6.28;;;3.08;;
22871;SDS011;11603;44.910;8.630;2022-07-29T12:19:55;8.48;;;3.53;;
22871;SDS011;11603;44.910;8.630;2022-07-29T12:25:01;6.55;;;3.63;;
22871;SDS011;11603;44.910;8.630;2022-07-29T12:27:28;6.72;;;3.30;;
22871;SDS011;11603;44.910;8.630;2022-07-29T12:29:58;6.47;;;3.40;;
22871;SDS011;11603;44.910;8.630;2022-07-29T12:32:34;6.35;;;3.22;;
22871;SDS011;11603;44.910;8.630;2022-07-29T12:35:20;3.55;;;3.25;;
22871;SDS011;11603;44.910;8.630;2022-07-29T12:37:47;3.20;;;2.92;;
22871;SDS011;11603;44.910;8.630;2022-07-29T12:40:16;3.90;;;3.15;;
22871;SDS011;11603;44.910;8.630;2022-07-29T12:45:35;3.75;;;2.88;;
22871;SDS011;11603;44.910;8.630;2022-07-29T12:48:01;3.88;;;2.85;;
22871;SDS011;11603;44.910;8.630;2022-07-29T12:50:27;3.08;;;2.63;;
22871;SDS011;11603;44.910;8.630;2022-07-29T12:52:53;3.42;;;2.67;;
22871;SDS011;11603;44.910;8.630;2022-07-29T12:58:08;4.18;;;2.80;;
22871;SDS011;11603;44.910;8.630;2022-07-29T13:00:33;3.67;;;2.67;;
22871;SDS011;11603;44.910;8.630;2022-07-29T13:02:59;2.75;;;2.35;;
22871;SDS011;11603;44.910;8.630;2022-07-29T13:05:42;5.70;;;2.80;;
22871;SDS011;11603;44.910;8.630;2022-07-29T13:08:17;2.90;;;2.50;;
22871;SDS011;11603;44.910;8.630;2022-07-29T13:10:44;5.15;;;2.80;;
22871;SDS011;11603;44.910;8.630;2022-07-29T13:13:11;4.78;;;2.80;;
22871;SDS011;11603;44.910;8.630;2022-07-29T13:15:39;5.68;;;2.50;;
22871;SDS011;11603;44.910;8.630;2022-07-29T13:20:54;3.08;;;2.50;;
22871;SDS011;11603;44.910;8.630;2022-07-29T13:23:20;4.32;;;2.92;;
22871;SDS011;11603;44.910;8.630;2022-07-29T13:25:46;3.85;;;2.50;;
22871;SDS011;11603;44.910;8.630;2022-07-29T13:28:11;4.95;;;2.92;;
22871;SDS011;11603;44.910;8.630;2022-07-29T13:30:39;4.05;;;2.40;;
22871;SDS011;11603;44.910;8.630;2022-07-29T13:33:06;3.33;;;2.85;;
22871;SDS011;11603;44.910;8.630;2022-07-29T13:35:32;3.15;;;2.47;;
22871;SDS011;11603;44.910;8.630;2022-07-29T13:37:57;5.10;;;2.60;;
22871;SDS011;11603;44.910;8.630;2022-07-29T13:40:23;3.17;;;2.33;;
22871;SDS011;11603;44.910;8.630;2022-07-29T13:42:48;4.38;;;2.83;;
22871;SDS011;11603;44.910;8.630;2022-07-29T13:45:14;6.90;;;3.25;;
22871;SDS011;11603;44.910;8.630;2022-07-29T13:47:39;3.90;;;2.60;;
22871;SDS011;11603;44.910;8.630;2022-07-29T13:50:06;3.33;;;2.60;;
22871;SDS011;11603;44.910;8.630;2022-07-29T13:52:33;4.57;;;2.65;;
22871;SDS011;11603;44.910;8.630;2022-07-29T13:54:59;6.43;;;3.00;;
22871;SDS011;11603;44.910;8.630;2022-07-29T13:57:25;3.00;;;2.70;;
22871;SDS011;11603;44.910;8.630;2022-07-29T13:59:51;4.20;;;2.88;;
22871;SDS011;11603;44.910;8.630;2022-07-29T14:02:18;3.92;;;3.10;;
22871;SDS011;11603;44.910;8.630;2022-07-29T14:04:43;5.20;;;3.00;;
22871;SDS011;11603;44.910;8.630;2022-07-29T14:07:09;4.60;;;3.38;;
22871;SDS011;11603;44.910;8.630;2022-07-29T14:09:35;10.68;;;3.10;;
22871;SDS011;11603;44.910;8.630;2022-07-29T14:12:00;5.05;;;3.10;;
22871;SDS011;11603;44.910;8.630;2022-07-29T14:14:27;10.45;;;3.28;;
22871;SDS011;11603;44.910;8.630;2022-07-29T14:16:53;7.95;;;3.22;;
22871;SDS011;11603;44.910;8.630;2022-07-29T14:19:19;4.40;;;3.30;;
22871;SDS011;11603;44.910;8.630;2022-07-29T14:21:44;8.73;;;3.20;;
22871;SDS011;11603;44.910;8.630;2022-07-29T14:24:10;7.47;;;3.25;;
22871;SDS011;11603;44.910;8.630;2022-07-29T14:26:35;7.68;;;3.20;;
22871;SDS011;11603;44.910;8.630;2022-07-29T14:29:01;4.75;;;3.28;;
22871;SDS011;11603;44.910;8.630;2022-07-29T14:31:26;5.03;;;3.33;;
22871;SDS011;11603;44.910;8.630;2022-07-29T14:33:52;6.03;;;3.20;;
22871;SDS011;11603;44.910;8.630;2022-07-29T14:36:17;5.07;;;3.92;;
22871;SDS011;11603;44.910;8.630;2022-07-29T14:38:43;6.97;;;3.83;;
22871;SDS011;11603;44.910;8.630;2022-07-29T14:41:08;4.72;;;4.00;;
22871;SDS011;11603;44.910;8.630;2022-07-29T14:43:34;7.90;;;4.68;;
22871;SDS011;11603;44.910;8.630;2022-07-29T14:46:00;10.25;;;5.70;;
22871;SDS011;11603;44.910;8.630;2022-07-29T14:48:26;10.57;;;5.78;;
22871;SDS011;11603;44.910;8.630;2022-07-29T14:50:51;8.65;;;5.50;;
22871;SDS011;11603;44.910;8.630;2022-07-29T14:53:17;8.20;;;5.35;;
22871;SDS011;11603;44.910;8.630;2022-07-29T14:55:43;8.82;;;5.45;;
22871;SDS011;11603;44.910;8.630;2022-07-29T14:58:09;11.85;;;5.88;;
22871;SDS011;11603;44.910;8.630;2022-07-29T15:00:34;9.60;;;6.05;;
22871;SDS011;11603;44.910;8.630;2022-07-29T15:03:01;11.95;;;6.45;;
22871;SDS011;11603;44.910;8.630;2022-07-29T15:05:27;11.55;;;5.90;;
22871;SDS011;11603;44.910;8.630;2022-07-29T15:07:53;10.55;;;6.05;;
22871;SDS011;11603;44.910;8.630;2022-07-29T15:10:19;9.82;;;6.35;;
22871;SDS011;11603;44.910;8.630;2022-07-29T15:12:45;9.48;;;5.53;;
22871;SDS011;11603;44.910;8.630;2022-07-29T15:15:12;9.25;;;5.90;;
22871;SDS011;11603;44.910;8.630;2022-07-29T15:17:38;10.48;;;6.47;;
22871;SDS011;11603;44.910;8.630;2022-07-29T15:20:04;10.00;;;6.70;;
22871;SDS011;11603;44.910;8.630;2022-07-29T15:22:30;17.33;;;6.80;;
22871;SDS011;11603;44.910;8.630;2022-07-29T15:24:55;11.77;;;6.35;;
22871;SDS011;11603;44.910;8.630;2022-07-29T15:27:21;11.07;;;6.68;;
22871;SDS011;11603;44.910;8.630;2022-07-29T15:29:46;10.25;;;6.30;;
22871;SDS011;11603;44.910;8.630;2022-07-29T15:32:12;9.73;;;6.65;;
22871;SDS011;11603;44.910;8.630;2022-07-29T15:34:38;10.98;;;5.85;;
22871;SDS011;11603;44.910;8.630;2022-07-29T15:37:04;8.35;;;5.97;;
22871;SDS011;11603;44.910;8.630;2022-07-29T15:39:30;11.85;;;6.68;;
22871;SDS011;11603;44.910;8.630;2022-07-29T15:41:56;9.10;;;5.68;;
22871;SDS011;11603;44.910;8.630;2022-07-29T15:44:21;10.65;;;5.80;;
22871;SDS011;11603;44.910;8.630;2022-07-29T15:46:47;12.00;;;6.93;;
22871;SDS011;11603;44.910;8.630;2022-07-29T15:49:33;8.13;;;5.93;;
22871;SDS011;11603;44.910;8.630;2022-07-29T15:52:04;13.52;;;6.10;;
22871;SDS011;11603;44.910;8.630;2022-07-29T15:54:34;14.43;;;6.07;;
22871;SDS011;11603;44.910;8.630;2022-07-29T15:57:02;7.85;;;5.80;;
22871;SDS011;11603;44.910;8.630;2022-07-29T15:59:29;19.98;;;5.82;;
22871;SDS011;11603;44.910;8.630;2022-07-29T16:01:54;9.23;;;5.40;;
22871;SDS011;11603;44.910;8.630;2022-07-29T16:04:20;8.55;;;5.97;;
22871;SDS011;11603;44.910;8.630;2022-07-29T16:06:46;12.00;;;6.03;;
22871;SDS011;11603;44.910;8.630;2022-07-29T16:09:13;9.40;;;5.75;;